createdAt,value
2024-05-09T00:00:18.152Z,102740.03
2024-05-09T00:00:53.930Z,102736.69
2024-05-09T00:01:25.719Z,102737.03
2024-05-09T00:01:57.531Z,102738.19
2024-05-09T00:02:29.829Z,102738.19
2024-05-09T00:03:01.703Z,102741.28
2024-05-09T00:03:33.592Z,102740.94
2024-05-09T00:04:05.575Z,102740.28
2024-05-09T00:04:37.544Z,102729.00
2024-05-09T00:05:12.279Z,102733.81
2024-05-09T00:05:44.428Z,102741.97
2024-05-09T00:06:16.466Z,102733.16
2024-05-09T00:06:48.279Z,102730.38
2024-05-09T00:07:20.502Z,102736.66
2024-05-09T00:07:52.283Z,102732.66
2024-05-09T00:08:24.244Z,102739.31
2024-05-09T00:08:56.081Z,102735.19
2024-05-09T00:09:27.827Z,102736.19
2024-05-09T00:09:59.677Z,102736.19
2024-05-09T00:10:36.501Z,102736.19
2024-05-09T00:11:10.545Z,102732.53
2024-05-09T00:11:42.457Z,102730.19
2024-05-09T00:12:14.394Z,102737.81
2024-05-09T00:12:46.159Z,102726.34
2024-05-09T00:13:17.905Z,102736.66
2024-05-09T00:13:49.686Z,102734.31
2024-05-09T00:14:21.431Z,102729.53
2024-05-09T00:14:53.223Z,102736.53
2024-05-09T00:15:24.946Z,102733.03
2024-05-09T00:15:56.740Z,102735.34
2024-05-09T00:16:28.452Z,102736.97
2024-05-09T00:17:00.238Z,102730.63
2024-05-09T00:17:32.112Z,102735.31
2024-05-09T00:18:05.000Z,102735.31
2024-05-09T00:18:37.527Z,102734.16
2024-05-09T00:19:09.537Z,102737.63
2024-05-09T00:19:43.575Z,102730.91
2024-05-09T00:20:20.509Z,102732.91
2024-05-09T00:20:56.510Z,102719.63
2024-05-09T00:21:28.275Z,102734.78
2024-05-09T00:21:59.995Z,102736.28
2024-05-09T00:22:32.141Z,102728.81
2024-05-09T00:23:04.434Z,102732.97
2024-05-09T00:23:36.313Z,102725.34
2024-05-09T00:24:08.007Z,102732.00
2024-05-09T00:24:39.722Z,102726.28
2024-05-09T00:25:11.403Z,102726.56
2024-05-09T00:25:43.800Z,102721.94
2024-05-09T00:26:17.848Z,102727.13
2024-05-09T00:26:49.661Z,102724.00
2024-05-09T00:27:21.465Z,102722.00
2024-05-09T00:27:53.167Z,102729.31
2024-05-09T00:28:25.879Z,102720.94
2024-05-09T00:28:57.668Z,102724.94
2024-05-09T00:29:29.478Z,102720.66
2024-05-09T00:30:01.281Z,102721.66
2024-05-09T00:30:35.860Z,102722.00
2024-05-09T00:31:08.818Z,102722.16
2024-05-09T00:31:40.538Z,102721.50
2024-05-09T00:32:12.385Z,102724.59
2024-05-09T00:32:44.207Z,102720.09
2024-05-09T00:33:16.397Z,102718.09
2024-05-09T00:33:48.475Z,102717.25
2024-05-09T00:34:20.368Z,102724.22
2024-05-09T00:34:52.220Z,102723.06
2024-05-09T00:35:24.059Z,102723.56
2024-05-09T00:35:55.872Z,102716.94
2024-05-09T00:36:27.594Z,102720.63
2024-05-09T00:36:59.336Z,102723.63
2024-05-09T00:37:31.059Z,102721.94
2024-05-09T00:38:02.980Z,102717.78
2024-05-09T00:38:34.966Z,102717.13
2024-05-09T00:39:06.897Z,102718.16
2024-05-09T00:39:38.649Z,102723.31
2024-05-09T00:40:18.297Z,102719.66
2024-05-09T00:40:54.618Z,102718.81
2024-05-09T00:41:26.359Z,102718.00
2024-05-09T00:41:59.632Z,102715.34
2024-05-09T00:42:31.407Z,102721.28
2024-05-09T00:43:03.229Z,102719.28
2024-05-09T00:43:34.944Z,102717.47
2024-05-09T00:44:06.761Z,102715.34
2024-05-09T00:44:39.105Z,102719.28
2024-05-09T00:45:11.015Z,102718.63
2024-05-09T00:45:43.630Z,102718.47
2024-05-09T00:46:15.691Z,102722.94
2024-05-09T00:46:47.495Z,102723.97
2024-05-09T00:47:19.592Z,102725.41
2024-05-09T00:47:51.817Z,102710.56
2024-05-09T00:48:23.848Z,102722.19
2024-05-09T00:48:55.990Z,102718.50
2024-05-09T00:49:28.526Z,102712.09
2024-05-09T00:50:01.494Z,102712.19
2024-05-09T00:50:36.943Z,102715.81
2024-05-09T00:51:09.806Z,102712.81
2024-05-09T00:51:42.211Z,102715.56
2024-05-09T00:52:13.994Z,102714.72
2024-05-09T00:52:46.492Z,102720.56
2024-05-09T00:53:19.137Z,102723.69
2024-05-09T00:53:51.065Z,102722.19
2024-05-09T00:54:23.221Z,102722.97
2024-05-09T00:54:56.812Z,102728.28
2024-05-09T00:55:28.706Z,102721.50
2024-05-09T00:56:01.181Z,102722.56
2024-05-09T00:56:35.676Z,102722.72
2024-05-09T00:57:07.450Z,102728.13
2024-05-09T00:57:39.915Z,102727.44
2024-05-09T00:58:13.799Z,102732.69
2024-05-09T00:58:45.813Z,102727.97
2024-05-09T00:59:18.053Z,102731.84
2024-05-09T00:59:50.510Z,102728.34
2024-05-09T01:00:30.720Z,102724.72
2024-05-09T01:01:08.216Z,102731.69
2024-05-09T01:01:40.909Z,102731.78
2024-05-09T01:02:13.010Z,102726.91
2024-05-09T01:02:45.123Z,102731.69
2024-05-09T01:03:17.886Z,102733.50
2024-05-09T01:03:51.421Z,102730.84
2024-05-09T01:04:23.355Z,102730.63
2024-05-09T01:04:55.693Z,102724.94
2024-05-09T01:05:27.757Z,102724.06
2024-05-09T01:05:59.659Z,102722.06
2024-05-09T01:06:31.626Z,102722.28
2024-05-09T01:07:03.691Z,102731.25
2024-05-09T01:07:35.547Z,102724.88
2024-05-09T01:08:07.715Z,102721.84
2024-05-09T01:08:39.671Z,102726.66
2024-05-09T01:09:11.465Z,102723.69
2024-05-09T01:09:43.306Z,102722.38
2024-05-09T01:10:21.174Z,102726.19
2024-05-09T01:10:59.459Z,102718.13
2024-05-09T01:11:38.942Z,102728.75
2024-05-09T01:12:10.988Z,102723.94
2024-05-09T01:12:42.871Z,102724.72
2024-05-09T01:13:14.586Z,102727.44
2024-05-09T01:13:46.508Z,102723.81
2024-05-09T01:14:18.324Z,102733.13
2024-05-09T01:14:50.520Z,102728.13
2024-05-09T01:15:22.279Z,102714.69
2024-05-09T01:15:54.131Z,102720.31
2024-05-09T01:16:25.889Z,102723.44
2024-05-09T01:16:57.901Z,102723.53
2024-05-09T01:17:31.094Z,102721.25
2024-05-09T01:18:13.288Z,102722.81
2024-05-09T01:18:45.802Z,102720.81
2024-05-09T01:19:23.737Z,102715.75
2024-05-09T01:19:55.594Z,102721.75
2024-05-09T01:20:36.969Z,102715.44
2024-05-09T01:21:13.874Z,102717.13
2024-05-09T01:21:45.799Z,102724.91
2024-05-09T01:22:17.544Z,102724.84
2024-05-09T01:22:49.325Z,102716.25
2024-05-09T01:23:21.171Z,102719.22
2024-05-09T01:23:53.053Z,102718.38
2024-05-09T01:24:24.843Z,102723.19
2024-05-09T01:24:56.593Z,102718.03
2024-05-09T01:25:28.284Z,102721.91
2024-05-09T01:26:00.287Z,102719.41
2024-05-09T01:26:32.122Z,102717.75
2024-05-09T01:27:04.121Z,102720.00
2024-05-09T01:27:35.925Z,102724.03
2024-05-09T01:28:07.757Z,102717.13
2024-05-09T01:28:39.529Z,102724.63
2024-05-09T01:29:11.349Z,102713.03
2024-05-09T01:29:43.092Z,102721.50
2024-05-09T01:30:20.803Z,102719.53
2024-05-09T01:30:53.785Z,102725.34
2024-05-09T01:31:25.476Z,102718.22
2024-05-09T01:31:59.320Z,102717.22
2024-05-09T01:32:31.232Z,102718.31
2024-05-09T01:33:03.704Z,102715.47
2024-05-09T01:33:35.886Z,102720.47
2024-05-09T01:34:07.744Z,102717.97
2024-05-09T01:34:39.477Z,102717.97
2024-05-09T01:35:11.344Z,102717.47
2024-05-09T01:35:43.431Z,102709.66
2024-05-09T01:36:15.316Z,102713.31
2024-05-09T01:36:47.017Z,102712.91
2024-05-09T01:37:18.741Z,102713.91
2024-05-09T01:37:50.971Z,102715.88
2024-05-09T01:38:22.824Z,102708.91
2024-05-09T01:38:54.584Z,102720.16
2024-05-09T01:39:26.279Z,102710.88
2024-05-09T01:39:57.966Z,102719.84
2024-05-09T01:40:37.131Z,102717.03
2024-05-09T01:41:11.472Z,102717.88
2024-05-09T01:41:43.273Z,102712.72
2024-05-09T01:42:16.634Z,102707.41
2024-05-09T01:42:48.368Z,102708.06
2024-05-09T01:43:20.127Z,102715.06
2024-05-09T01:43:52.099Z,102709.75
2024-05-09T01:44:23.985Z,102708.75
2024-05-09T01:44:55.885Z,102707.91
2024-05-09T01:45:27.582Z,102710.94
2024-05-09T01:45:59.394Z,102710.72
2024-05-09T01:46:31.089Z,102709.25
2024-05-09T01:47:02.948Z,102701.88
2024-05-09T01:47:35.192Z,102706.78
2024-05-09T01:48:08.221Z,102708.44
2024-05-09T01:48:40.296Z,102708.97
2024-05-09T01:49:12.296Z,102708.81
2024-05-09T01:49:44.326Z,102712.44
2024-05-09T01:50:16.693Z,102716.47
2024-05-09T01:50:48.552Z,102715.94
2024-05-09T01:51:20.341Z,102708.97
2024-05-09T01:51:52.116Z,102705.00
2024-05-09T01:52:23.946Z,102707.91
2024-05-09T01:52:55.764Z,102705.09
2024-05-09T01:53:27.493Z,102708.81
2024-05-09T01:53:59.261Z,102707.75
2024-05-09T01:54:30.952Z,102714.00
2024-05-09T01:55:05.836Z,102708.75
2024-05-09T01:55:38.582Z,102708.28
2024-05-09T01:56:10.792Z,102713.53
2024-05-09T01:56:42.617Z,102711.31
2024-05-09T01:57:14.401Z,102706.84
2024-05-09T01:57:46.110Z,102704.66
2024-05-09T01:58:17.964Z,102708.38
2024-05-09T01:58:50.415Z,102709.88
2024-05-09T01:59:22.392Z,102709.13
2024-05-09T01:59:54.439Z,102710.78
2024-05-09T02:00:36.940Z,102712.69
2024-05-09T02:01:12.520Z,102712.22
2024-05-09T02:01:56.308Z,102713.66
2024-05-09T02:02:29.592Z,102710.34
2024-05-09T02:03:01.753Z,102706.63
2024-05-09T02:03:33.937Z,102709.72
2024-05-09T02:04:06.379Z,102708.88
2024-05-09T02:04:38.741Z,102715.03
2024-05-09T02:05:10.786Z,102712.56
2024-05-09T02:05:43.155Z,102712.88
2024-05-09T02:06:15.054Z,102715.53
2024-05-09T02:06:46.880Z,102717.50
2024-05-09T02:07:18.696Z,102717.34
2024-05-09T02:07:50.503Z,102712.19
2024-05-09T02:08:22.475Z,102720.81
2024-05-09T02:08:54.341Z,102710.22
2024-05-09T02:09:26.162Z,102713.56
2024-05-09T02:09:57.849Z,102719.84
2024-05-09T02:10:32.719Z,102714.84
2024-05-09T02:11:05.317Z,102711.19
2024-05-09T02:11:42.549Z,102719.59
2024-05-09T02:12:14.492Z,102717.78
2024-05-09T02:12:46.422Z,102720.75
2024-05-09T02:13:18.299Z,102712.94
2024-05-09T02:13:50.192Z,102721.03
2024-05-09T02:14:22.009Z,102714.75
2024-05-09T02:14:53.755Z,102715.75
2024-05-09T02:15:25.520Z,102718.56
2024-05-09T02:15:57.290Z,102717.31
2024-05-09T02:16:29.127Z,102715.56
2024-05-09T02:17:00.856Z,102716.47
2024-05-09T02:17:32.922Z,102717.56
2024-05-09T02:18:05.499Z,102720.03
2024-05-09T02:18:37.384Z,102711.38
2024-05-09T02:19:09.362Z,102712.00
2024-05-09T02:19:41.112Z,102714.53
2024-05-09T02:20:18.912Z,102712.03
2024-05-09T02:20:58.972Z,102715.34
2024-05-09T02:21:34.440Z,102713.66
2024-05-09T02:22:06.191Z,102712.88
2024-05-09T02:22:37.978Z,102714.38
2024-05-09T02:23:09.962Z,102717.69
2024-05-09T02:23:41.904Z,102713.38
2024-05-09T02:24:13.663Z,102715.03
2024-05-09T02:24:45.496Z,102709.44
2024-05-09T02:25:20.633Z,102712.75
2024-05-09T02:25:52.427Z,102710.88
2024-05-09T02:26:24.261Z,102713.66
2024-05-09T02:26:56.036Z,102705.59
2024-05-09T02:27:27.723Z,102714.00
2024-05-09T02:27:59.666Z,102707.94
2024-05-09T02:28:31.456Z,102716.34
2024-05-09T02:29:03.244Z,102706.84
2024-05-09T02:29:35.043Z,102707.44
2024-05-09T02:30:18.458Z,102714.94
2024-05-09T02:30:57.587Z,102710.72
2024-05-09T02:31:29.365Z,102711.72
2024-05-09T02:32:01.231Z,102713.56
2024-05-09T02:32:33.237Z,102712.44
2024-05-09T02:33:05.688Z,102706.31
2024-05-09T02:33:38.100Z,102710.22
2024-05-09T02:34:10.102Z,102715.22
2024-05-09T02:34:41.905Z,102707.94
2024-05-09T02:35:13.877Z,102713.53
2024-05-09T02:35:45.750Z,102711.03
2024-05-09T02:36:17.885Z,102710.47
2024-05-09T02:36:49.783Z,102708.25
2024-05-09T02:37:21.474Z,102709.16
2024-05-09T02:37:53.226Z,102703.31
2024-05-09T02:38:24.943Z,102709.16
2024-05-09T02:38:56.657Z,102710.34
2024-05-09T02:39:28.376Z,102713.25
2024-05-09T02:40:00.121Z,102715.03
2024-05-09T02:40:37.059Z,102710.28
2024-05-09T02:41:10.872Z,102702.25
2024-05-09T02:41:42.639Z,102706.97
2024-05-09T02:42:14.374Z,102705.56
2024-05-09T02:42:47.241Z,102712.41
2024-05-09T02:43:19.011Z,102707.78
2024-05-09T02:43:50.729Z,102704.41
2024-05-09T02:44:22.558Z,102707.72
2024-05-09T02:44:54.438Z,102705.81
2024-05-09T02:45:26.218Z,102707.78
2024-05-09T02:45:58.001Z,102701.41
2024-05-09T02:46:29.740Z,102709.63
2024-05-09T02:47:01.556Z,102713.84
2024-05-09T02:47:33.384Z,102712.84
2024-05-09T02:48:06.094Z,102712.28
2024-05-09T02:48:38.188Z,102710.06
2024-05-09T02:49:10.187Z,102708.69
2024-05-09T02:49:41.951Z,102711.78
2024-05-09T02:50:19.293Z,102713.03
2024-05-09T02:50:54.937Z,102711.66
2024-05-09T02:51:26.660Z,102710.09
2024-05-09T02:51:58.380Z,102709.13
2024-05-09T02:52:30.134Z,102702.59
2024-05-09T02:53:01.869Z,102710.16
2024-05-09T02:53:33.766Z,102706.78
2024-05-09T02:54:07.743Z,102705.69
2024-05-09T02:54:39.442Z,102702.59
2024-05-09T02:55:11.189Z,102702.34
2024-05-09T02:55:43.367Z,102703.44
2024-05-09T02:56:15.301Z,102704.81
2024-05-09T02:56:47.210Z,102706.19
2024-05-09T02:57:18.971Z,102713.09
2024-05-09T02:57:50.809Z,102703.34
2024-05-09T02:58:22.570Z,102705.88
2024-05-09T02:58:54.344Z,102703.94
2024-05-09T02:59:26.340Z,102702.56
2024-05-09T02:59:58.122Z,102707.31
2024-05-09T03:00:38.084Z,102708.53
2024-05-09T03:01:12.796Z,102702.25
2024-05-09T03:01:45.075Z,102696.97
2024-05-09T03:02:16.954Z,102701.72
2024-05-09T03:02:48.821Z,102703.53
2024-05-09T03:03:21.112Z,102707.16
2024-05-09T03:03:53.436Z,102709.97
2024-05-09T03:04:25.337Z,102700.34
2024-05-09T03:04:57.195Z,102703.97
2024-05-09T03:05:29.148Z,102708.28
2024-05-09T03:06:02.268Z,102699.13
2024-05-09T03:06:34.017Z,102702.59
2024-05-09T03:07:05.744Z,102701.03
2024-05-09T03:07:37.626Z,102700.88
2024-05-09T03:08:09.807Z,102703.84
2024-05-09T03:08:45.921Z,102703.97
2024-05-09T03:09:17.946Z,102711.47
2024-05-09T03:09:49.699Z,102699.22
2024-05-09T03:10:25.658Z,102708.78
2024-05-09T03:11:00.470Z,102712.28
2024-05-09T03:11:32.303Z,102701.97
2024-05-09T03:12:04.691Z,102698.88
2024-05-09T03:12:39.145Z,102704.44
2024-05-09T03:13:15.017Z,102704.13
2024-05-09T03:13:47.794Z,102702.06
2024-05-09T03:14:19.655Z,102699.28
2024-05-09T03:14:51.636Z,102703.78
2024-05-09T03:15:23.356Z,102702.41
2024-05-09T03:15:55.098Z,102703.78
2024-05-09T03:16:26.897Z,102698.59
2024-05-09T03:16:58.599Z,102709.88
2024-05-09T03:17:30.602Z,102702.59
2024-05-09T03:18:03.252Z,102701.63
2024-05-09T03:18:35.183Z,102702.34
2024-05-09T03:19:07.040Z,102700.53
2024-05-09T03:19:38.999Z,102705.16
2024-05-09T03:20:17.558Z,102699.28
2024-05-09T03:20:55.348Z,102706.25
2024-05-09T03:21:27.150Z,102705.97
2024-05-09T03:21:58.916Z,102704.16
2024-05-09T03:22:30.617Z,102704.59
2024-05-09T03:23:02.855Z,102704.75
2024-05-09T03:23:40.770Z,102699.34
2024-05-09T03:24:12.571Z,102699.59
2024-05-09T03:24:44.275Z,102702.41
2024-05-09T03:25:16.021Z,102710.16
2024-05-09T03:25:47.834Z,102703.47
2024-05-09T03:26:19.742Z,102702.41
2024-05-09T03:26:51.538Z,102710.34
2024-05-09T03:27:24.912Z,102707.13
2024-05-09T03:27:56.753Z,102702.09
2024-05-09T03:28:28.514Z,102710.19
2024-05-09T03:29:00.515Z,102705.44
2024-05-09T03:29:32.366Z,102708.50
2024-05-09T03:30:07.301Z,102704.28
2024-05-09T03:30:42.375Z,102703.63
2024-05-09T03:31:18.387Z,102716.34
2024-05-09T03:31:50.189Z,102704.34
2024-05-09T03:32:22.137Z,102704.63
2024-05-09T03:32:54.292Z,102701.41
2024-05-09T03:33:26.555Z,102703.22
2024-05-09T03:33:58.630Z,102709.34
2024-05-09T03:34:30.428Z,102713.81
2024-05-09T03:35:02.237Z,102702.09
2024-05-09T03:35:34.118Z,102707.09
2024-05-09T03:36:09.111Z,102704.72
2024-05-09T03:36:43.222Z,102705.41
2024-05-09T03:37:14.914Z,102703.72
2024-05-09T03:37:46.843Z,102704.41
2024-05-09T03:38:18.701Z,102704.13
2024-05-09T03:38:51.041Z,102706.03
2024-05-09T03:39:22.786Z,102701.97
2024-05-09T03:39:54.698Z,102698.88
2024-05-09T03:40:29.172Z,102706.25
2024-05-09T03:41:02.662Z,102701.66
2024-05-09T03:41:34.564Z,102694.66
2024-05-09T03:42:06.433Z,102695.34
2024-05-09T03:42:41.676Z,102701.78
2024-05-09T03:43:13.761Z,102702.34
2024-05-09T03:43:45.557Z,102701.94
2024-05-09T03:44:17.809Z,102690.94
2024-05-09T03:44:49.785Z,102696.66
2024-05-09T03:45:21.862Z,102699.75
2024-05-09T03:45:53.642Z,102688.47
2024-05-09T03:46:25.351Z,102694.88
2024-05-09T03:46:57.107Z,102698.06
2024-05-09T03:47:28.890Z,102702.13
2024-05-09T03:48:00.979Z,102698.78
2024-05-09T03:48:35.157Z,102696.28
2024-05-09T03:49:08.073Z,102693.78
2024-05-09T03:49:40.391Z,102697.69
2024-05-09T03:50:18.488Z,102701.03
2024-05-09T03:50:57.649Z,102698.00
2024-05-09T03:51:30.070Z,102698.28
2024-05-09T03:52:05.265Z,102694.38
2024-05-09T03:52:37.027Z,102692.13
2024-05-09T03:53:13.039Z,102696.59
2024-05-09T03:53:44.952Z,102693.78
2024-05-09T03:54:16.694Z,102697.13
2024-05-09T03:54:48.508Z,102697.13
2024-05-09T03:55:20.223Z,102694.09
2024-05-09T03:55:52.018Z,102697.84
2024-05-09T03:56:24.047Z,102702.16
2024-05-09T03:56:55.801Z,102693.25
2024-05-09T03:57:27.500Z,102693.78
2024-05-09T03:57:59.439Z,102688.50
2024-05-09T03:58:31.286Z,102699.63
2024-05-09T03:59:03.126Z,102684.03
2024-05-09T03:59:34.932Z,102693.91
2024-05-09T04:00:12.210Z,102688.63
2024-05-09T04:00:49.793Z,102695.03
2024-05-09T04:01:21.693Z,102688.06
2024-05-09T04:01:53.480Z,102683.31
2024-05-09T04:02:25.370Z,102697.69
2024-05-09T04:02:59.253Z,102696.84
2024-05-09T04:03:31.565Z,102691.56
2024-05-09T04:04:03.421Z,102689.88
2024-05-09T04:04:35.254Z,102692.53
2024-05-09T04:05:07.051Z,102701.03
2024-05-09T04:05:43.878Z,102693.78
2024-05-09T04:06:23.705Z,102692.53
2024-05-09T04:06:55.408Z,102694.06
2024-05-09T04:07:27.138Z,102700.72
2024-05-09T04:07:58.969Z,102696.56
2024-05-09T04:08:30.779Z,102692.53
2024-05-09T04:09:02.555Z,102690.00
2024-05-09T04:09:34.296Z,102697.09
2024-05-09T04:10:09.018Z,102696.56
2024-05-09T04:10:43.095Z,102692.63
2024-05-09T04:11:14.953Z,102703.19
2024-05-09T04:11:46.863Z,102699.72
2024-05-09T04:12:18.829Z,102701.81
2024-05-09T04:12:53.309Z,102695.53
2024-05-09T04:13:25.018Z,102697.59
2024-05-09T04:13:56.805Z,102696.53
2024-05-09T04:14:28.779Z,102693.47
2024-05-09T04:15:00.897Z,102691.81
2024-05-09T04:15:33.121Z,102699.31
2024-05-09T04:16:05.219Z,102695.53
2024-05-09T04:16:36.916Z,102693.03
2024-05-09T04:17:08.679Z,102692.31
2024-05-09T04:17:40.739Z,102698.28
2024-05-09T04:18:14.149Z,102700.53
2024-05-09T04:18:46.204Z,102697.75
2024-05-09T04:19:18.294Z,102700.09
2024-05-09T04:19:50.122Z,102689.03
2024-05-09T04:20:32.941Z,102694.06
2024-05-09T04:21:10.137Z,102688.63
2024-05-09T04:21:42.043Z,102695.59
2024-05-09T04:22:13.858Z,102687.50
2024-05-09T04:22:45.620Z,102690.28
2024-05-09T04:23:17.412Z,102687.56
2024-05-09T04:23:49.273Z,102684.06
2024-05-09T04:24:21.165Z,102694.41
2024-05-09T04:24:53.106Z,102689.50
2024-05-09T04:25:24.809Z,102689.22
2024-05-09T04:25:56.652Z,102686.56
2024-05-09T04:26:28.473Z,102695.75
2024-05-09T04:27:00.332Z,102695.28
2024-05-09T04:27:32.124Z,102688.34
2024-05-09T04:28:04.073Z,102688.72
2024-05-09T04:28:35.812Z,102691.91
2024-05-09T04:29:07.949Z,102695.81
2024-05-09T04:29:40.802Z,102698.25
2024-05-09T04:30:21.581Z,102694.34
2024-05-09T04:31:02.026Z,102699.25
2024-05-09T04:31:36.712Z,102695.09
2024-05-09T04:32:08.743Z,102700.47
2024-05-09T04:32:40.719Z,102699.94
2024-05-09T04:33:15.092Z,102696.84
2024-05-09T04:33:47.360Z,102701.84
2024-05-09T04:34:19.346Z,102690.94
2024-05-09T04:34:51.320Z,102690.09
2024-05-09T04:35:23.241Z,102693.22
2024-05-09T04:35:55.082Z,102687.44
2024-05-09T04:36:26.823Z,102690.00
2024-05-09T04:36:58.521Z,102684.78
2024-05-09T04:37:30.588Z,102679.84
2024-05-09T04:38:02.436Z,102686.88
2024-05-09T04:38:34.428Z,102689.53
2024-05-09T04:39:06.290Z,102690.91
2024-05-09T04:39:38.022Z,102684.53
2024-05-09T04:40:17.196Z,102687.44
2024-05-09T04:40:55.465Z,102691.66
2024-05-09T04:41:27.302Z,102687.56
2024-05-09T04:41:59.029Z,102685.84
2024-05-09T04:42:30.856Z,102686.84
2024-05-09T04:43:06.897Z,102692.00
2024-05-09T04:43:39.288Z,102688.50
2024-05-09T04:44:11.010Z,102691.09
2024-05-09T04:44:42.734Z,102683.22
2024-05-09T04:45:14.531Z,102685.91
2024-05-09T04:45:46.492Z,102681.69
2024-05-09T04:46:18.281Z,102671.34
2024-05-09T04:46:50.185Z,102675.91
2024-05-09T04:47:22.064Z,102675.16
2024-05-09T04:47:54.943Z,102677.69
2024-05-09T04:48:27.141Z,102676.22
2024-05-09T04:48:58.999Z,102668.22
2024-05-09T04:49:30.878Z,102669.41
2024-05-09T04:50:02.795Z,102667.53
2024-05-09T04:50:38.182Z,102666.84
2024-05-09T04:51:11.352Z,102677.16
2024-05-09T04:51:43.153Z,102670.03
2024-05-09T04:52:14.884Z,102674.19
2024-05-09T04:52:46.671Z,102678.41
2024-05-09T04:53:18.688Z,102672.44
2024-05-09T04:53:50.534Z,102681.28
2024-05-09T04:54:30.380Z,102673.88
2024-05-09T04:55:07.785Z,102672.91
2024-05-09T04:55:40.454Z,102675.56
2024-05-09T04:56:12.528Z,102668.56
2024-05-09T04:56:44.334Z,102679.59
2024-05-09T04:57:16.182Z,102679.94
2024-05-09T04:57:47.974Z,102677.84
2024-05-09T04:58:20.653Z,102673.72
2024-05-09T04:58:52.441Z,102679.44
2024-05-09T04:59:24.336Z,102677.03
2024-05-09T04:59:56.489Z,102674.53
2024-05-09T05:00:35.800Z,102677.66
2024-05-09T05:01:10.726Z,102676.59
2024-05-09T05:01:42.450Z,102678.81
2024-05-09T05:02:14.386Z,102684.28
2024-05-09T05:02:46.323Z,102681.97
2024-05-09T05:03:18.449Z,102676.19
2024-05-09T05:03:50.492Z,102675.63
2024-05-09T05:04:22.491Z,102681.31
2024-05-09T05:04:54.534Z,102670.03
2024-05-09T05:05:26.528Z,102680.81
2024-05-09T05:05:58.398Z,102675.03
2024-05-09T05:06:30.318Z,102679.53
2024-05-09T05:07:03.005Z,102681.00
2024-05-09T05:07:34.914Z,102683.16
2024-05-09T05:08:15.052Z,102678.34
2024-05-09T05:08:47.147Z,102677.28
2024-05-09T05:09:18.987Z,102684.97
2024-05-09T05:09:50.886Z,102683.78
2024-05-09T05:10:29.535Z,102688.94
2024-05-09T05:11:07.176Z,102684.44
2024-05-09T05:11:39.194Z,102687.84
2024-05-09T05:12:31.122Z,102692.91
2024-05-09T05:13:18.087Z,102692.91
2024-05-09T05:13:50.773Z,102687.75
2024-05-09T05:14:22.545Z,102688.38
2024-05-09T05:14:54.321Z,102689.88
2024-05-09T05:15:26.028Z,102687.75
2024-05-09T05:15:58.480Z,102692.53
2024-05-09T05:16:30.534Z,102691.03
2024-05-09T05:17:02.306Z,102684.59
2024-05-09T05:17:34.416Z,102688.16
2024-05-09T05:18:06.577Z,102700.13
2024-05-09T05:18:38.824Z,102694.81
2024-05-09T05:19:13.516Z,102698.91
2024-05-09T05:19:47.052Z,102695.31
2024-05-09T05:20:27.352Z,102693.00
2024-05-09T05:21:05.039Z,102693.34
2024-05-09T05:21:36.841Z,102694.19
2024-05-09T05:22:08.669Z,102694.50
2024-05-09T05:22:43.171Z,102690.16
2024-05-09T05:23:16.901Z,102689.28
2024-05-09T05:23:48.980Z,102687.53
2024-05-09T05:24:20.711Z,102692.00
2024-05-09T05:24:52.455Z,102691.94
2024-05-09T05:25:24.208Z,102691.31
2024-05-09T05:25:56.109Z,102697.66
2024-05-09T05:26:27.976Z,102695.88
2024-05-09T05:26:59.735Z,102699.91
2024-05-09T05:27:31.511Z,102692.91
2024-05-09T05:28:03.538Z,102693.25
2024-05-09T05:28:35.235Z,102697.34
2024-05-09T05:29:08.291Z,102693.03
2024-05-09T05:29:40.035Z,102697.69
2024-05-09T05:30:17.869Z,102693.16
2024-05-09T05:30:53.309Z,102694.56
2024-05-09T05:31:25.106Z,102688.47
2024-05-09T05:31:57.154Z,102688.09
2024-05-09T05:32:29.178Z,102690.75
2024-05-09T05:33:01.366Z,102686.75
2024-05-09T05:33:33.570Z,102687.41
2024-05-09T05:34:05.373Z,102692.19
2024-05-09T05:34:37.163Z,102683.72
2024-05-09T05:35:09.032Z,102690.41
2024-05-09T05:35:41.683Z,102695.06
2024-05-09T05:36:13.449Z,102695.28
2024-05-09T05:36:45.204Z,102692.47
2024-05-09T05:37:16.975Z,102687.09
2024-05-09T05:37:48.728Z,102696.75
2024-05-09T05:38:23.868Z,102692.09
2024-05-09T05:38:58.058Z,102694.91
2024-05-09T05:39:29.943Z,102695.41
2024-05-09T05:40:01.782Z,102689.16
2024-05-09T05:40:37.096Z,102688.13
2024-05-09T05:41:10.317Z,102695.44
2024-05-09T05:41:42.144Z,102688.78
2024-05-09T05:42:13.893Z,102689.63
2024-05-09T05:42:45.655Z,102690.31
2024-05-09T05:43:18.323Z,102695.28
2024-05-09T05:43:50.162Z,102692.47
2024-05-09T05:44:22.041Z,102690.13
2024-05-09T05:44:53.953Z,102689.47
2024-05-09T05:45:26.019Z,102694.78
2024-05-09T05:45:58.353Z,102695.13
2024-05-09T05:46:30.210Z,102693.97
2024-05-09T05:47:02.014Z,102689.28
2024-05-09T05:47:33.861Z,102693.97
2024-05-09T05:48:09.198Z,102685.47
2024-05-09T05:48:41.215Z,102688.13
2024-05-09T05:49:13.100Z,102683.78
2024-05-09T05:49:44.911Z,102684.47
2024-05-09T05:50:24.699Z,102687.59
2024-05-09T05:51:05.809Z,102690.13
2024-05-09T05:51:37.696Z,102679.63
2024-05-09T05:52:11.214Z,102687.28
2024-05-09T05:52:43.545Z,102681.34
2024-05-09T05:53:15.765Z,102680.47
2024-05-09T05:53:47.774Z,102682.38
2024-05-09T05:54:19.548Z,102685.38
2024-05-09T05:54:52.069Z,102684.03
2024-05-09T05:55:23.794Z,102687.72
2024-05-09T05:55:55.720Z,102688.38
2024-05-09T05:56:27.655Z,102687.41
2024-05-09T05:56:59.502Z,102683.78
2024-05-09T05:57:31.330Z,102690.28
2024-05-09T05:58:03.282Z,102689.13
2024-05-09T05:58:34.943Z,102695.78
2024-05-09T05:59:06.711Z,102698.78
2024-05-09T05:59:38.572Z,102692.44
2024-05-09T06:00:17.953Z,102691.59
2024-05-09T06:00:53.778Z,102694.78
2024-05-09T06:01:25.664Z,102697.41
2024-05-09T06:01:57.530Z,102688.44
2024-05-09T06:02:29.440Z,102695.59
2024-05-09T06:03:01.296Z,102694.59
2024-05-09T06:03:33.312Z,102696.44
2024-05-09T06:04:05.190Z,102707.75
2024-05-09T06:04:36.994Z,102704.75
2024-05-09T06:05:09.826Z,102692.41
2024-05-09T06:05:46.177Z,102694.69
2024-05-09T06:06:18.066Z,102696.38
2024-05-09T06:06:49.900Z,102699.56
2024-05-09T06:07:21.620Z,102700.13
2024-05-09T06:07:53.407Z,102696.63
2024-05-09T06:08:27.095Z,102701.13
2024-05-09T06:09:00.539Z,102696.97
2024-05-09T06:09:32.344Z,102691.59
2024-05-09T06:10:09.225Z,102696.53
2024-05-09T06:10:43.191Z,102700.78
2024-05-09T06:11:15.043Z,102695.44
2024-05-09T06:11:47.118Z,102699.72
2024-05-09T06:12:20.119Z,102695.69
2024-05-09T06:12:51.958Z,102692.31
2024-05-09T06:13:23.734Z,102703.00
2024-05-09T06:13:55.494Z,102694.00
2024-05-09T06:14:27.300Z,102696.53